Time;durP1;ratioP1;P1;durP2;ratioP2;P2;SDS_P1;SDS_P2;PMS_P1;PMS_P2;Temp;Humidity;BMP_temperature;BMP_pressure;BME280_temperature;BME280_humidity;BME280_pressure;Samples;Min_cycle;Max_cycle;Signal;HPM_P1;HPM_P2
2022/12/01 00:00:58;;;;;;;21.98;11.20;;;2.30;99.90;;;;;;5049611;28;20037;-83
2022/12/01 00:03:24;;;;;;;21.75;10.95;;;2.30;99.90;;;;;;5049972;28;20067;-83
2022/12/01 00:06:10;;;;;;;22.48;12.38;;;2.30;99.90;;;;;;5021794;28;20073;-83
2022/12/01 00:08:36;;;;;;;22.90;12.13;;;2.30;99.90;;;;;;5050494;28;20497;-83
2022/12/01 00:11:10;;;;;;;22.85;10.82;;;2.30;99.90;;;;;;5039716;28;20135;-84
2022/12/01 00:13:37;;;;;;;19.10;10.88;;;2.30;99.90;;;;;;5068545;28;20059;-83
2022/12/01 00:16:14;;;;;;;19.25;10.02;;;2.30;99.90;;;;;;5039275;28;20116;-83
2022/12/01 00:18:40;;;;;;;22.63;10.77;;;2.30;99.90;;;;;;5033760;28;20457;-84
2022/12/01 00:21:11;;;;;;;22.17;10.88;;;2.30;99.90;;;;;;5048399;28;20036;-83
2022/12/01 00:23:37;;;;;;;20.05;10.57;;;2.30;99.90;;;;;;5070006;28;20028;-83
2022/12/01 00:26:04;;;;;;;21.08;11.65;;;2.30;99.90;;;;;;5045084;28;20040;-84
2022/12/01 00:28:30;;;;;;;20.52;11.20;;;2.30;99.90;;;;;;5031186;28;20075;-83
2022/12/01 00:30:56;;;;;;;19.50;11.10;;;2.30;99.90;;;;;;5049766;28;20116;-83
2022/12/01 00:33:22;;;;;;;22.67;11.27;;;2.30;99.90;;;;;;5032993;28;20029;-83
2022/12/01 00:35:47;;;;;;;21.13;11.25;;;2.30;99.90;;;;;;5035981;28;20025;-84
2022/12/01 00:38:13;;;;;;;20.80;11.38;;;2.30;99.90;;;;;;5038301;28;20059;-83
2022/12/01 00:40:39;;;;;;;21.15;11.13;;;2.30;99.90;;;;;;5052722;28;20405;-84
2022/12/01 00:43:05;;;;;;;20.20;10.88;;;2.30;99.90;;;;;;5051711;28;20028;-83
2022/12/01 00:45:30;;;;;;;21.05;10.77;;;2.30;99.90;;;;;;5068466;28;20033;-84
2022/12/01 00:47:56;;;;;;;20.15;10.98;;;2.30;99.90;;;;;;5069394;28;20199;-83
2022/12/01 00:50:22;;;;;;;20.52;12.38;;;2.30;99.90;;;;;;5041007;28;20038;-83
2022/12/01 00:52:48;;;;;;;21.08;10.52;;;2.30;99.90;;;;;;5052371;28;20058;-83
2022/12/01 00:55:13;;;;;;;19.80;10.82;;;2.30;99.90;;;;;;5049166;28;20037;-82
2022/12/01 00:57:40;;;;;;;20.42;11.30;;;2.30;99.90;;;;;;5049293;28;20083;-83
2022/12/01 01:00:06;;;;;;;18.92;9.95;;;2.30;99.90;;;;;;5026425;28;20032;-83
2022/12/01 01:02:32;;;;;;;20.33;10.98;;;2.30;99.90;;;;;;5051749;28;20623;-83
2022/12/01 01:04:58;;;;;;;18.63;10.85;;;2.30;99.90;;;;;;5069270;28;20123;-84
2022/12/01 01:07:24;;;;;;;20.75;11.73;;;2.30;99.90;;;;;;5071566;28;20025;-84
2022/12/01 01:09:49;;;;;;;18.52;10.27;;;2.30;99.90;;;;;;5047117;28;20051;-84
2022/12/01 01:12:15;;;;;;;18.35;10.38;;;2.30;99.90;;;;;;5033556;28;20040;-83
2022/12/01 01:14:41;;;;;;;21.05;10.73;;;2.30;99.90;;;;;;5029473;28;20061;-84
2022/12/01 01:17:07;;;;;;;22.35;11.52;;;2.40;99.90;;;;;;5055293;28;20041;-84
2022/12/01 01:19:32;;;;;;;18.40;10.15;;;2.40;99.90;;;;;;5053381;28;20045;-83
2022/12/01 01:21:58;;;;;;;21.02;10.88;;;2.30;99.90;;;;;;5033063;28;20040;-83
2022/12/01 01:24:24;;;;;;;19.13;11.50;;;2.40;99.90;;;;;;5052765;28;20037;-84
2022/12/01 01:26:50;;;;;;;20.90;11.80;;;2.40;99.90;;;;;;5035100;28;20060;-83
2022/12/01 01:29:15;;;;;;;19.45;10.10;;;2.30;99.90;;;;;;5039684;28;20033;-84
2022/12/01 01:31:41;;;;;;;20.05;10.25;;;2.30;99.90;;;;;;5029283;28;20040;-83
2022/12/01 01:34:07;;;;;;;20.70;10.43;;;2.30;99.90;;;;;;5043547;28;20041;-84
2022/12/01 01:36:33;;;;;;;20.45;10.57;;;2.30;99.90;;;;;;5052953;28;20037;-83
2022/12/01 01:39:00;;;;;;;23.15;10.93;;;2.30;99.90;;;;;;5073185;28;20054;-83
2022/12/01 01:41:25;;;;;;;21.55;11.43;;;2.30;99.90;;;;;;5049869;28;20043;-84
2022/12/01 01:43:54;;;;;;;19.63;11.02;;;2.30;99.90;;;;;;5055399;28;20036;-84
2022/12/01 01:46:25;;;;;;;19.73;10.43;;;2.30;99.90;;;;;;5054906;28;20028;-84
2022/12/01 01:49:07;;;;;;;19.88;10.13;;;2.30;99.90;;;;;;5071018;28;20036;-83
2022/12/01 01:51:39;;;;;;;22.13;10.48;;;2.30;99.90;;;;;;5055263;28;20043;-84
2022/12/01 01:54:17;;;;;;;23.67;10.95;;;2.30;99.90;;;;;;5052147;28;20055;-84
2022/12/01 01:56:44;;;;;;;19.50;10.27;;;2.30;99.90;;;;;;5047898;28;20043;-84
2022/12/01 01:59:13;;;;;;;20.45;10.85;;;2.40;99.90;;;;;;5044631;28;20043;-84
2022/12/01 02:01:39;;;;;;;18.98;10.40;;;2.40;99.90;;;;;;5049160;28;20036;-83
2022/12/01 02:04:06;;;;;;;19.08;10.15;;;2.40;99.90;;;;;;5033473;28;20128;-85
2022/12/01 02:06:34;;;;;;;21.02;10.60;;;2.30;99.90;;;;;;5068975;28;20021;-84
2022/12/01 02:09:00;;;;;;;17.33;10.50;;;2.40;99.90;;;;;;5043746;28;20093;-83
2022/12/01 02:11:47;;;;;;;20.40;10.95;;;2.30;99.90;;;;;;5047831;28;20439;-83
2022/12/01 02:14:28;;;;;;;18.42;10.05;;;2.40;99.90;;;;;;5065636;28;20033;-83
2022/12/01 02:17:03;;;;;;;21.55;10.80;;;2.30;99.90;;;;;;5055245;28;20443;-83
2022/12/01 02:19:40;;;;;;;17.52;9.60;;;2.40;99.90;;;;;;5045443;28;20033;-83
2022/12/01 02:22:18;;;;;;;19.73;11.40;;;2.30;99.90;;;;;;5061346;28;20044;-83
2022/12/01 02:24:49;;;;;;;19.13;10.73;;;2.30;99.90;;;;;;5055105;28;20574;-83
2022/12/01 02:27:37;;;;;;;18.90;11.40;;;2.40;99.90;;;;;;5054599;28;20048;-84
2022/12/01 02:30:04;;;;;;;17.92;9.68;;;2.40;99.90;;;;;;5066610;28;20115;-83
2022/12/01 02:32:44;;;;;;;18.67;9.90;;;2.30;99.90;;;;;;5067320;28;20021;-83
2022/12/01 02:35:29;;;;;;;19.17;10.20;;;2.30;99.90;;;;;;5041952;28;20569;-84
2022/12/01 02:38:03;;;;;;;18.58;10.23;;;2.30;99.90;;;;;;5039470;28;20108;-83
2022/12/01 02:40:38;;;;;;;19.27;10.93;;;2.40;99.90;;;;;;5054320;28;20029;-83
2022/12/01 02:43:22;;;;;;;20.02;10.27;;;2.30;99.90;;;;;;5055155;28;20043;-84
2022/12/01 02:45:58;;;;;;;18.98;9.65;;;2.30;99.90;;;;;;5067188;28;20029;-83
2022/12/01 02:48:28;;;;;;;;;;;2.30;99.90;;;;;;5072314;28;20035;-84
2022/12/01 02:50:58;;;;;;;17.75;9.13;;;2.20;99.90;;;;;;5072398;28;19931;-83
2022/12/01 02:53:24;;;;;;;18.38;9.57;;;2.10;99.90;;;;;;5070863;28;20485;-84
2022/12/01 02:55:53;;;;;;;20.58;9.60;;;2.00;99.90;;;;;;5036231;28;20040;-84
2022/12/01 02:58:20;;;;;;;21.73;10.80;;;2.00;99.90;;;;;;5071564;28;20394;-85
2022/12/01 03:01:03;;;;;;;17.25;8.82;;;1.90;99.90;;;;;;5049503;28;20667;-83
2022/12/01 03:03:40;;;;;;;17.80;10.40;;;1.80;99.90;;;;;;5050701;28;20029;-84
2022/12/01 03:06:27;;;;;;;21.80;10.32;;;1.80;99.90;;;;;;5057760;28;20451;-83
2022/12/01 03:09:09;;;;;;;19.15;10.60;;;1.70;99.90;;;;;;5066195;28;20123;-83
2022/12/01 03:11:55;;;;;;;21.35;10.48;;;1.60;99.90;;;;;;5048647;28;20028;-84
2022/12/01 03:14:35;;;;;;;18.63;9.70;;;1.50;99.90;;;;;;5065633;28;20032;-83
2022/12/01 03:17:09;;;;;;;21.73;11.35;;;1.50;99.90;;;;;;5070757;28;20082;-83
2022/12/01 03:19:42;;;;;;;18.42;10.18;;;1.40;99.90;;;;;;5056406;28;20861;-83
2022/12/01 03:22:17;;;;;;;18.95;10.20;;;1.40;99.90;;;;;;5049982;28;20470;-83
2022/12/01 03:24:46;;;;;;;22.75;11.02;;;1.30;99.90;;;;;;5034455;28;20128;-84
2022/12/01 03:27:17;;;;;;;21.23;10.55;;;1.30;99.90;;;;;;5067989;28;20072;-84
2022/12/01 03:29:47;;;;;;;23.25;11.05;;;1.30;99.90;;;;;;5068810;28;20021;-83
2022/12/01 03:32:40;;;;;;;18.88;10.25;;;1.30;99.90;;;;;;5049214;28;20033;-83
2022/12/01 03:35:15;;;;;;;19.63;10.05;;;1.30;99.90;;;;;;5052729;28;20065;-84
2022/12/01 03:38:04;;;;;;;20.40;9.57;;;1.30;99.90;;;;;;5034303;28;20075;-83
2022/12/01 03:40:31;;;;;;;19.38;9.80;;;1.20;99.90;;;;;;5063607;28;20120;-83
2022/12/01 03:43:01;;;;;;;20.92;10.52;;;1.20;99.90;;;;;;5053359;28;20036;-83
2022/12/01 03:45:35;;;;;;;18.33;9.57;;;1.20;99.90;;;;;;5054618;28;20101;-83
2022/12/01 03:48:01;;;;;;;19.30;10.10;;;1.20;99.90;;;;;;5054243;28;20029;-83
2022/12/01 03:50:39;;;;;;;19.98;10.38;;;1.10;99.90;;;;;;5053219;28;20037;-84
2022/12/01 03:53:12;;;;;;;17.40;9.55;;;1.10;99.90;;;;;;5054181;28;20064;-84
2022/12/01 03:55:43;;;;;;;16.98;9.25;;;1.10;99.90;;;;;;5052984;28;20043;-83
2022/12/01 03:58:20;;;;;;;18.63;9.45;;;1.10;99.90;;;;;;5040293;28;20082;-84
2022/12/01 04:00:50;;;;;;;17.90;9.45;;;1.00;99.90;;;;;;5062786;28;20032;-83
2022/12/01 04:03:18;;;;;;;17.42;9.45;;;1.00;99.90;;;;;;5049376;28;20029;-84
2022/12/01 04:05:44;;;;;;;21.33;10.25;;;1.00;99.90;;;;;;5037798;28;20115;-84
2022/12/01 04:08:10;;;;;;;20.08;10.10;;;1.00;99.90;;;;;;5053546;28;20035;-84
2022/12/01 04:10:36;;;;;;;22.42;10.85;;;1.00;99.90;;;;;;5045285;28;20028;-84
2022/12/01 04:13:01;;;;;;;23.40;10.40;;;1.00;99.90;;;;;;5053358;28;20401;-83
2022/12/01 04:15:27;;;;;;;20.23;10.48;;;1.00;99.90;;;;;;5052039;28;20713;-83
2022/12/01 04:17:53;;;;;;;22.70;10.80;;;0.90;99.90;;;;;;5053630;28;20041;-83
2022/12/01 04:20:20;;;;;;;19.70;9.23;;;0.90;99.90;;;;;;5068765;28;20720;-84
2022/12/01 04:22:46;;;;;;;20.40;10.35;;;0.90;99.90;;;;;;5052876;28;20140;-83
2022/12/01 04:25:12;;;;;;;19.42;10.45;;;0.80;99.90;;;;;;5049696;28;20040;-84
2022/12/01 04:27:38;;;;;;;17.42;9.23;;;0.80;99.90;;;;;;5047532;28;20042;-84
2022/12/01 04:30:06;;;;;;;19.73;9.45;;;0.80;99.90;;;;;;5049497;28;20067;-84
2022/12/01 04:32:40;;;;;;;20.70;9.15;;;0.80;99.90;;;;;;5049248;28;20028;-83
2022/12/01 04:35:07;;;;;;;23.95;10.88;;;0.80;99.90;;;;;;5048845;28;20610;-83
2022/12/01 04:37:33;;;;;;;20.20;10.38;;;0.80;99.90;;;;;;5069225;28;20653;-83
2022/12/01 04:39:59;;;;;;;22.38;10.90;;;0.80;99.90;;;;;;5070668;28;20635;-83
2022/12/01 04:42:25;;;;;;;17.90;9.32;;;0.80;99.90;;;;;;5049326;28;20040;-83
2022/12/01 04:44:51;;;;;;;22.70;11.63;;;0.80;99.90;;;;;;5027582;28;20040;-83
2022/12/01 04:47:17;;;;;;;15.00;8.50;;;0.70;99.90;;;;;;5044795;28;20490;-84
2022/12/01 04:49:42;;;;;;;15.65;8.80;;;0.80;99.90;;;;;;5032726;28;20044;-85
2022/12/01 04:52:08;;;;;;;20.65;9.20;;;0.70;99.90;;;;;;5031932;28;20039;-84
2022/12/01 04:54:34;;;;;;;16.65;7.88;;;0.80;99.90;;;;;;5052847;28;20032;-83
2022/12/01 04:57:00;;;;;;;19.95;9.48;;;0.80;99.90;;;;;;5052834;28;20086;-83
2022/12/01 04:59:26;;;;;;;21.00;9.90;;;0.80;99.90;;;;;;5052148;28;20071;-82
2022/12/01 05:01:52;;;;;;;16.38;9.25;;;0.80;99.90;;;;;;5050800;28;20508;-83
2022/12/01 05:04:17;;;;;;;19.92;10.05;;;0.90;99.90;;;;;;5052554;28;20055;-83
2022/12/01 05:06:43;;;;;;;18.60;9.88;;;0.90;99.90;;;;;;5043484;28;20039;-84
2022/12/01 05:09:13;;;;;;;22.17;10.95;;;1.00;99.90;;;;;;5052708;28;20023;-85
2022/12/01 05:11:38;;;;;;;18.45;9.80;;;1.00;99.90;;;;;;5038616;28;20135;-83
2022/12/01 05:14:05;;;;;;;20.45;10.13;;;1.00;99.90;;;;;;5040266;28;20116;-83
2022/12/01 05:16:32;;;;;;;19.42;10.38;;;1.00;99.90;;;;;;5065610;28;20036;-83
2022/12/01 05:21:46;;;;;;;16.00;8.40;;;1.10;99.90;;;;;;5068191;28;20517;-84
2022/12/01 05:24:13;;;;;;;18.60;8.93;;;1.10;99.90;;;;;;5050768;28;20032;-83
2022/12/01 05:26:40;;;;;;;17.10;8.68;;;1.00;99.90;;;;;;5068844;28;20043;-83
2022/12/01 05:29:07;;;;;;;21.85;10.75;;;1.00;99.90;;;;;;5049584;28;20386;-84
2022/12/01 05:31:34;;;;;;;25.23;11.73;;;1.00;99.90;;;;;;5040187;28;20041;-83
2022/12/01 05:34:00;;;;;;;25.20;12.60;;;1.00;99.90;;;;;;5049425;28;20036;-83
2022/12/01 05:36:25;;;;;;;23.05;11.15;;;1.00;99.90;;;;;;5044711;28;20103;-83
2022/12/01 05:38:51;;;;;;;19.98;10.40;;;1.00;99.90;;;;;;5026158;28;20037;-83
2022/12/01 05:41:17;;;;;;;23.25;12.07;;;1.00;99.90;;;;;;5038516;28;20090;-83
2022/12/01 05:43:43;;;;;;;22.73;11.45;;;1.00;99.90;;;;;;5048343;28;20064;-84
2022/12/01 05:46:09;;;;;;;25.63;11.93;;;1.00;99.90;;;;;;5036547;28;20095;-84
2022/12/01 05:48:35;;;;;;;25.40;11.85;;;1.00;99.90;;;;;;5034467;28;20025;-84
2022/12/01 05:51:08;;;;;;;26.27;13.35;;;1.00;99.90;;;;;;5052010;28;20032;-84
2022/12/01 05:53:33;;;;;;;24.50;11.77;;;1.00;99.90;;;;;;5057153;28;20029;-83
2022/12/01 05:55:59;;;;;;;22.08;10.82;;;1.00;99.90;;;;;;5032113;28;20044;-83
2022/12/01 05:58:25;;;;;;;20.63;11.10;;;1.00;99.90;;;;;;5032771;28;20028;-83
2022/12/01 06:00:51;;;;;;;20.33;10.77;;;1.00;99.90;;;;;;5061140;28;20539;-84
2022/12/01 06:03:17;;;;;;;24.95;11.10;;;1.00;99.90;;;;;;5022883;28;20033;-84
2022/12/01 06:05:43;;;;;;;21.67;11.38;;;1.00;99.90;;;;;;5070948;28;20040;-83
2022/12/01 06:08:08;;;;;;;21.80;11.30;;;1.00;99.90;;;;;;5045652;28;20033;-85
2022/12/01 06:10:34;;;;;;;26.77;13.65;;;1.00;99.90;;;;;;5052401;28;20049;-83
2022/12/01 06:13:00;;;;;;;23.80;12.65;;;1.00;99.90;;;;;;5052254;28;20607;-83
2022/12/01 06:15:26;;;;;;;20.50;11.43;;;1.10;99.90;;;;;;5032152;28;20047;-83
2022/12/01 06:17:52;;;;;;;18.75;10.18;;;1.00;99.90;;;;;;5029845;28;20041;-83
2022/12/01 06:20:18;;;;;;;20.65;10.25;;;1.10;99.90;;;;;;5038433;28;20036;-84
2022/12/01 06:22:44;;;;;;;20.02;10.32;;;1.10;99.90;;;;;;5042440;28;20037;-83
2022/12/01 06:25:09;;;;;;;19.67;8.98;;;1.10;99.90;;;;;;5040811;28;20029;-84
2022/12/01 06:27:35;;;;;;;21.35;9.82;;;1.10;99.90;;;;;;5054058;28;20384;-84
2022/12/01 06:30:02;;;;;;;19.15;10.65;;;1.10;99.90;;;;;;5068398;28;20032;-84
2022/12/01 06:32:28;;;;;;;18.38;10.00;;;1.10;99.90;;;;;;5070869;28;20024;-83
2022/12/01 06:34:54;;;;;;;25.75;12.05;;;1.20;99.90;;;;;;5051762;28;20440;-83
2022/12/01 06:37:20;;;;;;;26.95;12.25;;;1.20;99.90;;;;;;5045975;28;20040;-82
2022/12/01 06:39:45;;;;;;;19.70;10.65;;;1.20;99.90;;;;;;5023160;28;20496;-83
2022/12/01 06:42:11;;;;;;;22.35;11.10;;;1.20;99.90;;;;;;5053724;28;20029;-83
2022/12/01 06:44:37;;;;;;;23.85;11.57;;;1.20;99.90;;;;;;5054552;28;20106;-84
2022/12/01 06:47:03;;;;;;;25.30;11.77;;;1.20;99.90;;;;;;5046911;28;20416;-83
2022/12/01 06:49:29;;;;;;;27.48;13.07;;;1.20;99.90;;;;;;5049223;28;20573;-84
2022/12/01 06:51:55;;;;;;;27.45;12.63;;;1.20;99.90;;;;;;5046763;28;20060;-84
2022/12/01 06:54:21;;;;;;;29.42;13.52;;;1.20;99.90;;;;;;5029430;28;20033;-83
2022/12/01 06:56:47;;;;;;;24.98;12.57;;;1.30;99.90;;;;;;5039507;28;20062;-84
2022/12/01 06:59:12;;;;;;;26.77;12.95;;;1.30;99.90;;;;;;5030030;28;20041;-84
2022/12/01 07:01:38;;;;;;;27.30;12.25;;;1.30;99.90;;;;;;5060454;28;20049;-83
2022/12/01 07:04:04;;;;;;;27.35;12.48;;;1.30;99.90;;;;;;5063398;28;20040;-83
2022/12/01 07:06:30;;;;;;;26.08;12.63;;;1.30;99.90;;;;;;5049976;28;20056;-84
2022/12/01 07:08:56;;;;;;;25.67;12.50;;;1.30;99.90;;;;;;5065175;28;20035;-84
2022/12/01 07:11:22;;;;;;;25.00;12.75;;;1.30;99.90;;;;;;5037228;28;20257;-84
2022/12/01 07:13:49;;;;;;;29.00;12.85;;;1.20;99.90;;;;;;5020219;28;20040;-83
2022/12/01 07:16:15;;;;;;;27.15;13.30;;;1.20;99.90;;;;;;5053792;28;20405;-83
2022/12/01 07:18:43;;;;;;;28.70;13.52;;;1.20;99.90;;;;;;5054184;28;20029;-83
2022/12/01 07:21:13;;;;;;;28.50;14.32;;;1.20;99.90;;;;;;5053282;28;20056;-84
2022/12/01 07:23:39;;;;;;;27.15;12.88;;;1.20;99.90;;;;;;5066962;28;20068;-83
2022/12/01 07:26:06;;;;;;;24.75;12.07;;;1.20;99.90;;;;;;5022721;28;20045;-83
2022/12/01 07:28:33;;;;;;;30.83;13.48;;;1.30;99.90;;;;;;5045500;28;20035;-84
2022/12/01 07:31:04;;;;;;;24.98;12.45;;;1.20;99.90;;;;;;5052961;28;20087;-85
2022/12/01 07:33:30;;;;;;;27.48;13.10;;;1.30;99.90;;;;;;5052060;28;20025;-85
2022/12/01 07:35:56;;;;;;;26.92;11.82;;;1.30;99.90;;;;;;5053141;28;20028;-84
2022/12/01 07:38:22;;;;;;;29.02;13.18;;;1.30;99.90;;;;;;5050727;28;20047;-83
2022/12/01 07:40:48;;;;;;;24.02;12.48;;;1.30;99.90;;;;;;5040081;28;20029;-83
2022/12/01 07:43:14;;;;;;;24.83;12.27;;;1.30;99.90;;;;;;5049059;28;20029;-84
2022/12/01 07:45:39;;;;;;;27.75;13.18;;;1.40;99.90;;;;;;5051726;28;20032;-83
2022/12/01 07:48:05;;;;;;;28.25;13.20;;;1.40;99.90;;;;;;5070270;28;20099;-83
2022/12/01 07:50:31;;;;;;;27.08;13.63;;;1.40;99.90;;;;;;5063022;28;20068;-84
2022/12/01 07:52:57;;;;;;;27.98;13.93;;;1.40;99.90;;;;;;5051442;28;20032;-84
2022/12/01 07:55:23;;;;;;;28.85;13.45;;;1.50;99.90;;;;;;5048357;28;20704;-84
2022/12/01 07:57:49;;;;;;;28.10;14.32;;;1.50;99.90;;;;;;5052303;28;20513;-84
2022/12/01 08:00:15;;;;;;;33.67;14.90;;;1.60;99.90;;;;;;5046131;28;20032;-84
2022/12/01 08:02:40;;;;;;;28.33;13.98;;;1.60;99.90;;;;;;5062045;28;20044;-83
2022/12/01 08:05:06;;;;;;;30.85;15.35;;;1.70;99.90;;;;;;5034810;28;20115;-83
2022/12/01 08:07:32;;;;;;;27.20;12.65;;;1.70;99.90;;;;;;5048287;28;20513;-84
2022/12/01 08:09:58;;;;;;;27.13;12.55;;;1.70;99.90;;;;;;5021104;28;20101;-83
2022/12/01 08:12:24;;;;;;;28.95;13.82;;;1.70;99.90;;;;;;5051962;28;20105;-83
2022/12/01 08:14:49;;;;;;;27.92;12.85;;;1.80;99.90;;;;;;5049694;28;20119;-84
2022/12/01 08:17:15;;;;;;;33.15;14.95;;;1.80;99.90;;;;;;5050283;28;20028;-85
2022/12/01 08:19:41;;;;;;;33.00;15.32;;;1.90;99.90;;;;;;5048847;28;20041;-84
2022/12/01 08:22:07;;;;;;;29.60;14.02;;;1.90;99.90;;;;;;5013402;28;20040;-85
2022/12/01 08:24:32;;;;;;;29.60;14.45;;;2.00;99.90;;;;;;5043507;28;20429;-83
2022/12/01 08:26:58;;;;;;;34.13;15.55;;;2.00;99.90;;;;;;5057250;28;20595;-84
2022/12/01 08:29:24;;;;;;;31.48;14.88;;;2.00;99.90;;;;;;5043328;28;20033;-84
2022/12/01 08:31:50;;;;;;;28.85;14.57;;;2.10;99.90;;;;;;5047053;28;20032;-84
2022/12/01 08:34:17;;;;;;;30.30;15.02;;;2.10;99.90;;;;;;5022541;28;20095;-84
2022/12/01 08:36:42;;;;;;;28.02;13.73;;;2.10;99.90;;;;;;5048314;28;20254;-84
2022/12/01 08:39:10;;;;;;;29.73;13.40;;;2.20;99.90;;;;;;5046869;28;20082;-84
2022/12/01 08:41:36;;;;;;;29.50;14.95;;;2.20;99.90;;;;;;5045765;28;20033;-85
2022/12/01 08:44:02;;;;;;;28.00;13.68;;;2.20;99.90;;;;;;5031857;28;20090;-84
2022/12/01 08:46:34;;;;;;;28.77;14.13;;;2.20;99.90;;;;;;5064105;28;20037;-84
2022/12/01 08:49:01;;;;;;;27.92;14.52;;;2.20;99.90;;;;;;5049773;28;20048;-85
2022/12/01 08:51:27;;;;;;;26.65;13.73;;;2.30;99.90;;;;;;5037653;28;20067;-85
2022/12/01 08:53:55;;;;;;;29.55;15.48;;;2.30;99.90;;;;;;5047359;28;20047;-84
2022/12/01 08:56:32;;;;;;;32.10;15.38;;;2.30;99.90;;;;;;5041982;28;20236;-83
2022/12/01 08:58:58;;;;;;;32.55;15.10;;;2.40;99.90;;;;;;5062619;28;20059;-84
2022/12/01 09:01:24;;;;;;;31.58;15.27;;;2.40;99.90;;;;;;5029110;28;20033;-84
2022/12/01 09:04:04;;;;;;;29.33;15.43;;;2.40;99.90;;;;;;5048432;28;20102;-85
2022/12/01 09:06:42;;;;;;;31.70;15.70;;;2.50;99.90;;;;;;5050410;28;20070;-84
2022/12/01 09:09:10;;;;;;;30.88;15.45;;;2.50;99.90;;;;;;5045549;28;20025;-84
2022/12/01 09:11:36;;;;;;;31.63;15.07;;;2.50;99.90;;;;;;5043440;28;20051;-85
2022/12/01 09:14:02;;;;;;;30.85;14.30;;;2.50;99.90;;;;;;5048957;28;20024;-84
2022/12/01 09:16:28;;;;;;;30.23;15.38;;;2.60;99.90;;;;;;5064448;28;20037;-84
2022/12/01 09:18:55;;;;;;;27.35;14.18;;;2.60;99.90;;;;;;5048063;28;20033;-84
2022/12/01 09:21:24;;;;;;;30.30;15.23;;;2.60;99.90;;;;;;5029392;28;20477;-83
2022/12/01 09:23:50;;;;;;;32.67;15.45;;;2.60;99.90;;;;;;5042862;28;20166;-84
2022/12/01 09:26:17;;;;;;;30.50;15.23;;;2.70;99.90;;;;;;5052063;28;20202;-84
2022/12/01 09:28:44;;;;;;;30.98;15.88;;;2.70;99.90;;;;;;5049392;28;20056;-83
2022/12/01 09:31:11;;;;;;;34.35;15.10;;;2.70;99.90;;;;;;5063355;28;20025;-85
2022/12/01 09:33:38;;;;;;;30.02;14.00;;;2.70;99.90;;;;;;5067990;28;20024;-84
2022/12/01 09:36:06;;;;;;;26.20;13.77;;;2.70;99.90;;;;;;5068529;28;20040;-85
2022/12/01 09:38:33;;;;;;;30.63;14.70;;;2.80;99.90;;;;;;5054203;28;20120;-85
2022/12/01 09:41:04;;;;;;;31.92;15.38;;;2.80;99.90;;;;;;5040109;28;20047;-85
2022/12/01 09:43:41;;;;;;;33.13;16.15;;;2.80;99.90;;;;;;5067956;28;20037;-85
2022/12/01 09:46:14;;;;;;;33.72;15.40;;;2.90;99.90;;;;;;5040645;28;20029;-84
2022/12/01 09:48:44;;;;;;;30.90;15.82;;;2.90;99.90;;;;;;5052600;28;20025;-85
2022/12/01 09:51:17;;;;;;;32.05;15.82;;;3.00;99.90;;;;;;5055601;28;20850;-85
2022/12/01 09:53:43;;;;;;;31.38;16.15;;;3.00;99.90;;;;;;5048399;28;20032;-85
2022/12/01 09:56:43;;;;;;;32.97;16.20;;;3.00;99.90;;;;;;5048590;28;20029;-84
2022/12/01 09:59:29;;;;;;;31.23;15.80;;;3.00;99.90;;;;;;5049080;28;20535;-85
2022/12/01 10:02:02;;;;;;;36.67;16.30;;;3.10;99.90;;;;;;5064238;28;20029;-84
2022/12/01 10:04:35;;;;;;;35.60;17.23;;;3.10;99.90;;;;;;5049632;28;20040;-85
2022/12/01 10:07:11;;;;;;;35.38;16.27;;;3.10;99.90;;;;;;5046835;28;20057;-84
2022/12/01 10:09:52;;;;;;;36.38;16.88;;;3.20;99.90;;;;;;5050986;28;20035;-83
2022/12/01 10:12:22;;;;;;;34.70;16.23;;;3.20;99.90;;;;;;5067902;28;20025;-84
2022/12/01 10:14:49;;;;;;;30.00;16.35;;;3.30;99.90;;;;;;5048470;28;20075;-85
2022/12/01 10:17:44;;;;;;;32.92;16.20;;;3.30;99.90;;;;;;5048274;28;20033;-86
2022/12/01 10:20:15;;;;;;;33.80;16.05;;;3.40;99.90;;;;;;5049766;28;20033;-84
2022/12/01 10:23:18;;;;;;;34.03;16.25;;;3.40;99.90;;;;;;5061002;28;20146;-83
2022/12/01 10:25:55;;;;;;;31.08;15.57;;;3.50;99.90;;;;;;5062620;28;20107;-85
2022/12/01 10:28:27;;;;;;;32.35;17.27;;;3.50;99.90;;;;;;5052712;28;20017;-85
2022/12/01 10:30:59;;;;;;;31.05;15.88;;;3.60;99.90;;;;;;5049406;28;20086;-84
2022/12/01 10:33:30;;;;;;;33.63;15.88;;;3.70;99.90;;;;;;5032421;28;20564;-85
2022/12/01 10:35:56;;;;;;;32.97;15.50;;;3.70;99.90;;;;;;5075136;28;20021;-84
2022/12/01 10:38:33;;;;;;;33.40;15.88;;;3.80;99.90;;;;;;5056122;28;20673;-84
2022/12/01 10:41:01;;;;;;;33.80;15.95;;;3.80;99.90;;;;;;5052941;28;20090;-84
2022/12/01 10:43:49;;;;;;;31.20;15.68;;;3.90;99.90;;;;;;5043877;28;20024;-85
2022/12/01 10:46:27;;;;;;;31.33;15.57;;;3.90;99.90;;;;;;5042608;28;20064;-84
2022/12/01 10:48:58;;;;;;;33.42;15.48;;;4.00;99.90;;;;;;5062267;28;20032;-85
2022/12/01 10:51:26;;;;;;;31.05;15.07;;;4.00;99.90;;;;;;5065603;28;20098;-83
2022/12/01 10:54:05;;;;;;;31.13;16.02;;;4.10;99.90;;;;;;5051573;28;20059;-84
2022/12/01 10:56:32;;;;;;;33.60;16.33;;;4.10;99.90;;;;;;5067936;28;20082;-84
2022/12/01 10:59:03;;;;;;;29.77;15.38;;;4.10;99.90;;;;;;5051952;28;20036;-84
2022/12/01 11:01:34;;;;;;;33.42;16.80;;;4.20;99.90;;;;;;5056160;28;20567;-84
2022/12/01 11:04:05;;;;;;;33.20;16.05;;;4.20;99.90;;;;;;5031083;28;20047;-85
2022/12/01 11:06:31;;;;;;;30.70;15.40;;;4.30;99.90;;;;;;5060004;28;20031;-85
2022/12/01 11:09:04;;;;;;;33.00;16.50;;;4.30;99.90;;;;;;5063427;28;20033;-84
2022/12/01 11:11:32;;;;;;;30.20;15.20;;;4.30;99.90;;;;;;5050431;28;20455;-84
2022/12/01 11:14:20;;;;;;;30.58;15.75;;;4.40;99.90;;;;;;5051352;28;20444;-85
2022/12/01 11:16:49;;;;;;;29.45;14.98;;;4.40;99.90;;;;;;5059652;28;20047;-84
2022/12/01 11:19:33;;;;;;;31.88;15.85;;;4.50;99.90;;;;;;5048360;28;20029;-83
2022/12/01 11:22:11;;;;;;;32.17;15.63;;;4.50;99.90;;;;;;5033072;28;20037;-85
2022/12/01 11:24:43;;;;;;;30.77;15.65;;;4.50;99.90;;;;;;5048494;28;20398;-84
2022/12/01 11:27:18;;;;;;;31.55;15.73;;;4.50;99.90;;;;;;5047235;28;20064;-85
2022/12/01 11:29:46;;;;;;;29.05;15.18;;;4.50;99.90;;;;;;5056231;28;20082;-84
2022/12/01 11:32:29;;;;;;;30.77;15.57;;;4.60;99.90;;;;;;5028090;28;20061;-84
2022/12/01 11:35:02;;;;;;;32.05;15.65;;;4.60;99.90;;;;;;5067521;28;20025;-85
2022/12/01 11:37:42;;;;;;;33.80;15.60;;;4.60;99.90;;;;;;5066510;28;20348;-85
2022/12/01 11:40:27;;;;;;;30.42;15.63;;;4.60;99.90;;;;;;5072000;28;20067;-83
2022/12/01 11:42:57;;;;;;;31.00;15.52;;;4.60;99.90;;;;;;5055811;28;20040;-84
2022/12/01 11:45:28;;;;;;;30.38;14.60;;;4.60;99.90;;;;;;5052539;28;20036;-85
2022/12/01 11:48:24;;;;;;;31.40;15.95;;;4.60;99.90;;;;;;5065150;28;20032;-83
2022/12/01 11:51:09;;;;;;;29.90;15.75;;;4.60;99.90;;;;;;5040110;28;20021;-83
2022/12/01 11:53:40;;;;;;;29.02;14.45;;;4.70;99.90;;;;;;5047773;28;20041;-84
2022/12/01 11:56:15;;;;;;;27.85;14.70;;;4.60;99.90;;;;;;5058765;28;20040;-84
2022/12/01 11:58:43;;;;;;;30.48;15.45;;;4.60;99.90;;;;;;5068400;28;20029;-84
2022/12/01 12:01:23;;;;;;;28.67;14.95;;;4.60;99.90;;;;;;5050940;28;20104;-83
2022/12/01 12:04:21;;;;;;;29.20;14.75;;;4.60;99.90;;;;;;5042840;28;20021;-83
2022/12/01 12:07:13;;;;;;;32.28;16.17;;;4.60;99.90;;;;;;5066739;28;20048;-84
2022/12/01 12:10:26;;;;;;;29.02;15.55;;;4.60;99.90;;;;;;5070964;28;20525;-84
2022/12/01 12:12:55;;;;;;;30.08;15.15;;;4.60;99.90;;;;;;5046577;28;20397;-84
2022/12/01 12:15:23;;;;;;;33.10;15.18;;;4.60;99.90;;;;;;5051068;28;20029;-85
2022/12/01 12:17:58;;;;;;;27.38;14.77;;;4.70;99.90;;;;;;5061135;28;20528;-85
2022/12/01 12:20:47;;;;;;;34.60;17.85;;;4.60;99.90;;;;;;5051999;28;20063;-85
2022/12/01 12:23:44;;;;;;;30.13;15.45;;;4.60;99.90;;;;;;5050696;28;20041;-84
2022/12/01 12:26:25;;;;;;;28.42;14.80;;;4.60;99.90;;;;;;5067730;28;20029;-84
2022/12/01 12:29:18;;;;;;;29.48;14.23;;;4.60;99.90;;;;;;5066213;28;20025;-85
2022/12/01 12:31:54;;;;;;;29.83;15.32;;;4.60;99.90;;;;;;5067576;28;20036;-84
2022/12/01 12:34:29;;;;;;;29.17;15.65;;;4.60;99.90;;;;;;5070927;28;20271;-85
2022/12/01 12:37:19;;;;;;;31.00;15.32;;;4.60;99.90;;;;;;5066381;28;20024;-84
2022/12/01 12:40:07;;;;;;;29.17;14.95;;;4.60;99.90;;;;;;5054420;28;20050;-85
2022/12/01 12:42:46;;;;;;;35.03;16.35;;;4.60;99.90;;;;;;5062440;28;20039;-84
2022/12/01 12:45:39;;;;;;;28.67;14.82;;;4.60;99.90;;;;;;5052120;28;20674;-84
2022/12/01 12:48:29;;;;;;;30.00;15.80;;;4.60;99.90;;;;;;5063091;28;20063;-86
2022/12/01 12:51:01;;;;;;;32.22;15.80;;;4.60;99.90;;;;;;5063951;28;20021;-85
2022/12/01 12:53:33;;;;;;;27.73;14.77;;;4.60;99.90;;;;;;5048773;28;20492;-86
2022/12/01 12:56:05;;;;;;;30.42;13.73;;;4.60;99.90;;;;;;5069747;28;20035;-85
2022/12/01 12:58:44;;;;;;;28.92;14.88;;;4.50;99.90;;;;;;5032028;28;20633;-85